Flight Track Log - Related Links

Times and Time Zones

All times are in EDT time to prevent confusion due to time zone crossing. See the DAL151 flight status page for this flight to view local times or setup timezone preferences in your user account.

Time Position Orientation Groundspeed Altitude Reporting Facility
EDT Latitude Longitude Course Direction KTS MPH feet Rate Location/Type
Fri 05:18:36 PM 33.6380 -84.4270 180° South 26 30  Level FlightAware ADS-B
Fri 05:19:07 PM 33.6370 -84.4270 180° South 27 31 324 Level FlightAware ADS-B
Fri 05:19:22 PM 33.6370 -84.4260 90° East 30 35 351 Level FlightAware ADS-B
Fri 05:20:16 PM 33.6370 -84.4210 90° East 18 21 366 Level FlightAware ADS-B
Fri 05:20:38 PM 33.6370 -84.4190 90° East 31 36 430 Level FlightAware ADS-B
Fri 05:21:08 PM 33.6370 -84.4170 90° East 17 20 463 Level FlightAware ADS-B
Fri 05:21:35 PM 33.6370 -84.4150 90° East 31 36 518 Level FlightAware ADS-B
Fri 05:22:08 PM 33.6370 -84.4120 90° East 15 17 579 Level FlightAware ADS-B
Fri 05:22:30 PM 33.6370 -84.4100 90° East 24 28 677 Level FlightAware ADS-B
Fri 05:23:00 PM 33.6360 -84.4090 140° Southeast 21 24 763 Level FlightAware ADS-B
Fri 05:23:34 PM 33.6350 -84.4090 180° South 22 25 923 Level FlightAware ADS-B
Fri 05:24:15 PM 33.6350 -84.4100 270° West 30 35 1,211 Level FlightAware ADS-B
Fri 05:24:55 PM 33.6350 -84.4320 270° West 160 184 1,941 Level FlightAware ADS-B
Fri 05:25:23 PM 33.6350 -84.4590 270° West 168 193 2,200 3,536 Climbing FlightAware ADS-B
Fri 05:25:51 PM 33.6350 -84.4850 270° West 168 193 3,300 1,448 Climbing FlightAware ADS-B
Fri 05:26:21 PM 33.6350 -84.5160 270° West 207 238 3,600 625 Climbing FlightAware ADS-B
Fri 05:26:39 PM 33.6360 -84.5380 273° West 230 265 3,800 1,393 Climbing FlightAware ADS-B
Fri 05:27:17 PM 33.6230 -84.5870 252° West 265 305 4,900 2,000 Climbing FlightAware ADS-B
Fri 05:27:33 PM 33.6050 -84.5990 209° Southwest 279 321 5,600 2,444 Climbing FlightAware ADS-B
Fri 05:28:11 PM 33.5540 -84.5950 176° South 303 349 7,100 2,294 Climbing FlightAware ADS-B
Fri 05:28:41 PM 33.5130 -84.5870 171° South 309 356 8,200 2,250 Climbing FlightAware ADS-B
Fri 05:29:07 PM 33.4740 -84.5780 169° South 315 362 9,200 1,667 Climbing FlightAware ADS-B
Fri 05:29:53 PM 33.4080 -84.5640 170° South 309 356 10,200 1,125 Climbing FlightAware ADS-B
Fri 05:30:27 PM 33.3590 -84.5520 168° South 336 387 10,700 1,575 Climbing FlightAware ADS-B
Fri 05:31:13 PM 33.2860 -84.5270 164° South 347 399 12,300 2,283 Climbing FlightAware ADS-B
Fri 05:31:59 PM 33.2170 -84.5280 181° South 325 374 14,200 1,642 Climbing FlightAware ADS-B
Fri 05:32:48 PM 33.1540 -84.5550 200° South 321 369 14,900 1,898 Climbing FlightAware ADS-B
Fri 05:33:37 PM 33.0770 -84.5920 202° Southwest 332 382 17,300 2,313 Climbing FlightAware ADS-B
Fri 05:34:11 PM 33.0280 -84.6150 201° Southwest 337 388 18,100 911 Climbing FlightAware ADS-B
Fri 05:34:56 PM 32.9700 -84.6440 203° Southwest 341 392 18,500 1,412 Climbing FlightAware ADS-B
Fri 05:35:36 PM 32.9040 -84.6770 203° Southwest 351 404 20,100 1,793 Climbing FlightAware ADS-B
Fri 05:36:23 PM 32.8320 -84.7140 203° Southwest 356 410 21,100 1,319 Climbing FlightAware ADS-B
Fri 05:37:07 PM 32.7650 -84.7480 203° Southwest 360 414 22,100 1,350 Climbing FlightAware ADS-B
Fri 05:37:43 PM 32.7100 -84.7760 203° Southwest 362 417 22,900 1,308 Climbing FlightAware ADS-B
Fri 05:38:25 PM 32.6440 -84.8100 203° Southwest 366 421 23,800 816 Climbing FlightAware ADS-B
Fri 05:39:26 PM 32.5540 -84.8570 204° Southwest 372 428 24,300 309 Climbing FlightAware ADS-B
Fri 05:40:02 PM 32.5060 -84.8810 203° Southwest 372 428 24,300  Level FlightAware ADS-B
Fri 05:40:48 PM 32.4440 -84.9120 203° Southwest 372 428 24,300  Level FlightAware ADS-B
Fri 05:42:02 PM 32.3440 -84.9620 203° Southwest 372 428 24,300  Level FlightAware ADS-B
Fri 05:42:38 PM 32.2960 -84.9870 204° Southwest 372 428 24,300 2,087 Level FlightAware ADS-B
Fri 05:43:57 PM 32.1094 -85.0956 204° Southwest 414 476 28,300 1,856 Climbing Atlanta Center
Fri 05:44:57 PM 32.0025 -85.1483 203° Southwest 414 476 28,600 432 Climbing Atlanta Center
Fri 05:46:16 PM 31.8464 -85.2356 205° Southwest 429 494 29,300 652 Climbing Jacksonville Center
Fri 05:47:15 PM 31.7325 -85.3011 206° Southwest 448 516 30,100 655 Climbing Jacksonville Center
Fri 05:48:15 PM 31.6183 -85.3664 206° Southwest 453 521 30,600 694 Climbing Jacksonville Center
Fri 05:49:16 PM 31.5022 -85.4314 206° Southwest 458 527 31,500 1,150 Climbing Jacksonville Center
Fri 05:50:15 PM 31.3903 -85.5014 208° Southwest 458 527 32,900 1,059 Climbing Jacksonville Center
Fri 05:51:15 PM 31.2844 -85.5667 208° Southwest 446 513 33,600 595 Climbing Jacksonville Center
Fri 05:52:16 PM 31.1644 -85.6069 196° South 441 507 34,100 300 Climbing Jacksonville Center
Fri 05:53:15 PM 31.0464 -85.5669 164° South 427 491 34,200 202 Climbing Jacksonville Center
Fri 05:54:15 PM 30.9461 -85.4722 141° Southeast 414 476 34,500 298 Climbing Jacksonville Center
Fri 05:55:16 PM 30.8478 -85.3800 141° Southeast 437 503 34,800 379 Climbing Jacksonville Center
Fri 06:00:51 PM 30.1940 -84.9890 141° Southeast 482 555 37,000 346 Climbing FlightAware ADS-B
Fri 06:01:38 PM 30.1170 -84.9370 150° Southeast 482 555 37,000  Level FlightAware ADS-B
Fri 06:02:33 PM 30.0130 -84.8690 150° Southeast 482 555 37,000  Level FlightAware ADS-B
Fri 06:03:09 PM 29.9540 -84.8300 150° Southeast 482 555 37,000  Level FlightAware ADS-B
Fri 06:03:56 PM 29.8770 -84.7790 150° Southeast 482 555 37,000  Level FlightAware ADS-B
Fri 06:04:32 PM 29.7600 -84.7080 152° Southeast 37,000  Level FlightAware ADS-B
Fri 06:05:27 PM 29.6630 -84.6450 151° Southeast 481 554 37,000  Level FlightAware ADS-B
Fri 06:06:32 PM 29.5250 -84.5570 151° Southeast 485 558 37,000  Level FlightAware ADS-B
Fri 06:07:12 PM 29.4390 -84.5020 151° Southeast 484 557 37,000  Level FlightAware ADS-B
Fri 06:07:53 PM 29.3690 -84.4560 150° Southeast 484 557 37,000  Level FlightAware ADS-B
Fri 06:08:48 PM 29.2620 -84.3880 151° Southeast 481 554 37,000  Level FlightAware ADS-B
Fri 06:09:40 PM 29.1570 -84.3210 151° Southeast 481 554 37,000  Level FlightAware ADS-B
Fri 06:10:42 PM 29.0220 -84.2370 151° Southeast 482 555 37,000  Level FlightAware ADS-B
Fri 06:11:44 PM 28.9080 -84.1630 150° Southeast 484 557 37,000  Level FlightAware ADS-B
Fri 06:12:27 PM 28.8160 -84.1060 152° Southeast 483 556 37,000  Level FlightAware ADS-B
Fri 06:13:07 PM 28.7340 -84.0550 151° Southeast 480 552 37,000  Level FlightAware ADS-B
Fri 06:13:52 PM 28.6470 -84.0000 151° Southeast 480 552 37,000  Level FlightAware ADS-B
Fri 06:14:32 PM 28.5650 -83.9490 151° Southeast 480 552 37,000  Level FlightAware ADS-B
Fri 06:15:22 PM 28.4844 -83.8975 151° Southeast 486 559 37,000  Level Miami Center
Fri 06:16:22 PM 28.3631 -83.8214 151° Southeast 486 559 37,000  Level Miami Center
Fri 06:17:22 PM 28.2456 -83.7506 152° Southeast 486 559 37,000  Level Miami Center
Fri 06:18:21 PM 28.1283 -83.6753 150° Southeast 486 559 37,000  Level Miami Center
Fri 06:19:21 PM 28.0086 -83.6047 153° Southeast 481 554 37,000  Level Miami Center
Fri 06:24:55 PM 27.3500 -83.1960 153° Southeast 490 564 37,000  Level FlightAware ADS-B
Fri 06:28:41 PM 26.9630 -82.9560 151° Southeast 490 564 37,000  Level FlightAware ADS-B
Fri 06:29:18 PM 26.9000 -82.9170 151° Southeast 490 564 37,000  Level FlightAware ADS-B
Fri 06:30:01 PM 26.7270 -82.8180 153° Southeast 475 547 37,000  Level FlightAware ADS-B
Fri 06:30:47 PM 26.6360 -82.7640 152° Southeast 480 552 37,000  Level FlightAware ADS-B
Fri 06:31:30 PM 26.5560 -82.7160 152° Southeast 480 552 37,000  Level FlightAware ADS-B
Fri 06:32:09 PM 26.4730 -82.6660 152° Southeast 478 550 37,000  Level FlightAware ADS-B
Fri 06:32:49 PM 26.3950 -82.6190 152° Southeast 480 552 37,000  Level FlightAware ADS-B
Fri 06:34:03 PM 26.2440 -82.5290 152° Southeast 489 563 37,000  Level FlightAware ADS-B
Fri 06:34:38 PM 26.1820 -82.4920 152° Southeast 490 564 37,000  Level FlightAware ADS-B
Fri 06:35:22 PM 26.0890 -82.4360 152° Southeast 489 563 37,000  Level FlightAware ADS-B
Fri 06:36:49 PM 25.9130 -82.3320 152° Southeast 492 566 37,000  Level FlightAware ADS-B
Fri 06:37:49 PM 25.8130 -82.2710 151° Southeast 492 566 37,000  Level FlightAware ADS-B
Fri 06:38:27 PM 25.7170 -82.2160 153° Southeast 479 551 37,000  Level FlightAware ADS-B
Fri 06:39:12 PM 25.6320 -82.1660 152° Southeast 477 549 37,000  Level FlightAware ADS-B
Fri 06:39:47 PM 25.5580 -82.1220 152° Southeast 476 548 37,000  Level FlightAware ADS-B
Fri 06:40:43 PM 25.4480 -82.0570 152° Southeast 477 549 37,000  Level FlightAware ADS-B
Fri 06:41:27 PM 25.3730 -82.0120 152° Southeast 474 545 37,000  Level FlightAware ADS-B
Fri 06:42:12 PM 25.2710 -81.9530 152° Southeast 479 551 37,000  Level FlightAware ADS-B
Fri 06:42:52 PM 25.1920 -81.9070 152° Southeast 479 551 37,000  Level FlightAware ADS-B
Fri 06:43:32 PM 25.1110 -81.8590 152° Southeast 488 562 37,000  Level FlightAware ADS-B
Fri 06:44:17 PM 25.0200 -81.8060 152° Southeast 478 550 37,000  Level FlightAware ADS-B
Fri 06:49:22 PM 24.3720 -81.6390 167° South 470 541 37,000  Level FlightAware ADS-B
Fri 06:50:17 PM 24.2480 -81.6320 177° South 481 554 37,000  Level FlightAware ADS-B
Fri 06:50:57 PM 24.1610 -81.6280 178° South 480 552 37,000  Level FlightAware ADS-B
Fri 06:51:42 PM 24.0680 -81.6230 177° South 467 537 37,000  Level FlightAware ADS-B
Fri 06:52:22 PM 23.9720 -81.6180 177° South 467 537 37,000  Level FlightAware ADS-B
Fri 06:53:02 PM 23.8940 -81.6140 177° South 470 541 37,000  Level FlightAware ADS-B
Fri 06:53:51 PM 23.7730 -81.6080 177° South 470 541 37,000  Level FlightAware ADS-B
Fri 06:54:26 PM 23.6990 -81.6040 177° South 465 535 37,000  Level FlightAware ADS-B
Fri 06:55:11 PM 23.6010 -81.5990 177° South 470 541 37,000  Level FlightAware ADS-B
Fri 06:56:17 PM 23.4570 -81.5920 177° South 463 533 37,000 248 Level FlightAware ADS-B
Fri 06:57:12 PM 23.3390 -81.5860 177° South 470 541 37,500 730 Climbing FlightAware ADS-B
Fri 06:58:12 PM 23.2070 -81.5790 177° South 454 522 38,400 557 Climbing FlightAware ADS-B
Fri 06:58:49 PM 23.1410 -81.5750 177° South 454 522 38,400  Level FlightAware ADS-B
Fri 06:59:38 PM 23.0540 -81.5710 178° South 454 522 38,400  Level FlightAware ADS-B
Fri 07:00:14 PM 22.9900 -81.5670 177° South 454 522 38,400  Level FlightAware ADS-B
Fri 07:01:02 PM 22.9040 -81.5620 177° South 454 522 38,400  Level FlightAware ADS-B
Fri 07:01:27 PM 22.8600 -81.5590 176° South 454 522 38,400  Level FlightAware ADS-B
Fri 07:02:38 PM 22.7330 -81.5520 177° South 454 522 38,400  Level FlightAware ADS-B
Fri 07:04:14 PM 22.5620 -81.5430 177° South 454 522 38,400  Level FlightAware ADS-B
Fri 07:05:17 PM 22.4490 -81.5360 177° South 454 522 38,400  Level FlightAware ADS-B
Fri 07:05:53 PM 22.3850 -81.5330 178° South 454 522 38,400  Level FlightAware ADS-B
Fri 07:06:41 PM 22.3000 -81.5280 177° South 454 522 38,400  Level FlightAware ADS-B
Fri 07:07:17 PM 22.2360 -81.5240 177° South 454 522 38,400  Level FlightAware ADS-B
Fri 07:08:05 PM 22.1500 -81.5190 177° South 454 522 38,400 Level FlightAware ADS-B
Fri 07:10:00 PM 21.9031 -81.4913 174° South  Level FlightAware Approximate
Fri 07:11:00 PM 21.7743 -81.4769 174° South  Level FlightAware Approximate
Fri 07:12:00 PM 21.6454 -81.4625 174° South  Level FlightAware Approximate
Fri 07:13:00 PM 21.5166 -81.4481 174° South  Level FlightAware Approximate
Fri 07:14:00 PM 21.3878 -81.4338 174° South  Level FlightAware Approximate
Fri 07:15:00 PM 21.2589 -81.4195 174° South  Level FlightAware Approximate
Fri 07:16:00 PM 21.1301 -81.4052 174° South  Level FlightAware Approximate
Fri 07:17:00 PM 20.9966 -81.3987 179° South  Level FlightAware Approximate
Fri 07:18:00 PM 20.8671 -81.3967 179° South  Level FlightAware Approximate
Fri 07:19:00 PM 20.7376 -81.3947 179° South  Level FlightAware Approximate
Fri 07:20:00 PM 20.6081 -81.3927 179° South  Level FlightAware Approximate
Fri 07:21:00 PM 20.4786 -81.3907 179° South  Level FlightAware Approximate
Fri 07:22:00 PM 20.3491 -81.3887 179° South  Level FlightAware Approximate
Fri 07:23:00 PM 20.2196 -81.3867 179° South  Level FlightAware Approximate
Fri 07:24:00 PM 20.0904 -81.3847 179° South  Level FlightAware Approximate
Fri 07:25:00 PM 19.9613 -81.3824 179° South  Level FlightAware Approximate
Fri 07:26:00 PM 19.8321 -81.3794 179° South  Level FlightAware Approximate
Fri 07:27:00 PM 19.7029 -81.3764 179° South  Level FlightAware Approximate
Fri 07:28:00 PM 19.5738 -81.3734 179° South  Level FlightAware Approximate
Fri 07:29:00 PM 19.4447 -81.3704 179° South  Level FlightAware Approximate
Fri 07:30:00 PM 19.3155 -81.3674 179° South  Level FlightAware Approximate
Fri 07:31:00 PM 19.1878 -81.3492 170° South  Level FlightAware Approximate
Fri 07:32:00 PM 19.0605 -81.3259 170° South  Level FlightAware Approximate
Fri 07:33:00 PM 18.9332 -81.3026 170° South  Level FlightAware Approximate
Fri 07:34:00 PM 18.8059 -81.2794 170° South  Level FlightAware Approximate
Fri 07:35:00 PM 18.6786 -81.2562 170° South  Level FlightAware Approximate
Fri 07:36:00 PM 18.5513 -81.2330 170° South  Level FlightAware Approximate
Fri 07:37:00 PM 18.4240 -81.2099 170° South  Level FlightAware Approximate
Fri 07:38:00 PM 18.2967 -81.1868 170° South  Level FlightAware Approximate
Fri 07:39:00 PM 18.1694 -81.1637 170° South  Level FlightAware Approximate
Fri 07:40:00 PM 18.0421 -81.1407 170° South  Level FlightAware Approximate
Fri 07:41:00 PM 17.9148 -81.1177 170° South  Level FlightAware Approximate
Fri 07:42:00 PM 17.7875 -81.0948 170° South  Level FlightAware Approximate
Fri 07:43:00 PM 17.6602 -81.0719 170° South  Level FlightAware Approximate
Fri 07:44:00 PM 17.5328 -81.0490 170° South  Level FlightAware Approximate
Fri 07:45:00 PM 17.4055 -81.0261 170° South  Level FlightAware Approximate
Fri 07:46:00 PM 17.2782 -81.0033 170° South  Level FlightAware Approximate
Fri 07:47:00 PM 17.1509 -80.9805 170° South  Level FlightAware Approximate
Fri 07:48:00 PM 17.0235 -80.9577 170° South  Level FlightAware Approximate
Fri 07:49:00 PM 16.8962 -80.9350 170° South  Level FlightAware Approximate
Fri 07:50:00 PM 16.7689 -80.9123 170° South  Level FlightAware Approximate
Fri 07:51:00 PM 16.6415 -80.8896 170° South  Level FlightAware Approximate
Fri 07:52:00 PM 16.5142 -80.8670 170° South  Level FlightAware Approximate
Fri 07:53:00 PM 16.3868 -80.8444 170° South  Level FlightAware Approximate
Fri 07:54:00 PM 16.2595 -80.8218 170° South  Level FlightAware Approximate
Fri 07:55:00 PM 16.1321 -80.7992 170° South  Level FlightAware Approximate
Fri 07:56:00 PM 16.0048 -80.7767 170° South  Level FlightAware Approximate
Fri 07:57:00 PM 15.8774 -80.7542 170° South  Level FlightAware Approximate
Fri 07:58:00 PM 15.7501 -80.7318 170° South  Level FlightAware Approximate
Fri 07:59:00 PM 15.6227 -80.7093 170° South  Level FlightAware Approximate
Fri 08:00:00 PM 15.4954 -80.6869 170° South  Level FlightAware Approximate
Fri 08:01:00 PM 15.3680 -80.6645 170° South  Level FlightAware Approximate
Fri 08:02:00 PM 15.2406 -80.6422 170° South  Level FlightAware Approximate
Fri 08:03:00 PM 15.1133 -80.6198 170° South  Level FlightAware Approximate
Fri 08:04:00 PM 14.9859 -80.5975 170° South  Level FlightAware Approximate
Fri 08:05:00 PM 14.8585 -80.5753 170° South  Level FlightAware Approximate
Fri 08:06:00 PM 14.7311 -80.5531 170° South  Level FlightAware Approximate
Fri 08:07:00 PM 14.6038 -80.5310 170° South  Level FlightAware Approximate
Fri 08:08:00 PM 14.4764 -80.5088 170° South  Level FlightAware Approximate
Fri 08:09:00 PM 14.3490 -80.4867 170° South  Level FlightAware Approximate
Fri 08:10:00 PM 14.2216 -80.4647 171° South  Level FlightAware Approximate
Fri 08:11:00 PM 14.0941 -80.4429 171° South  Level FlightAware Approximate
Fri 08:12:00 PM 13.9667 -80.4212 171° South  Level FlightAware Approximate
Fri 08:13:00 PM 13.8393 -80.3995 171° South  Level FlightAware Approximate
Fri 08:14:00 PM 13.7118 -80.3778 171° South  Level FlightAware Approximate
Fri 08:15:00 PM 13.5844 -80.3561 171° South  Level FlightAware Approximate
Fri 08:16:00 PM 13.4569 -80.3345 171° South  Level FlightAware Approximate
Fri 08:17:00 PM 13.3294 -80.3133 171° South  Level FlightAware Approximate
Fri 08:18:00 PM 13.2018 -80.2922 171° South  Level FlightAware Approximate
Fri 08:19:00 PM 13.0743 -80.2711 171° South  Level FlightAware Approximate
Fri 08:20:00 PM 12.9468 -80.2501 171° South  Level FlightAware Approximate
Fri 08:21:00 PM 12.8193 -80.2290 171° South  Level FlightAware Approximate
Fri 08:22:00 PM 12.6917 -80.2080 171° South  Level FlightAware Approximate
Fri 08:23:00 PM 12.5642 -80.1870 171° South  Level FlightAware Approximate
Fri 08:24:00 PM 12.4366 -80.1660 171° South  Level FlightAware Approximate
Fri 08:25:00 PM 12.3091 -80.1450 171° South  Level FlightAware Approximate
Fri 08:26:00 PM 12.1816 -80.1241 171° South  Level FlightAware Approximate
Fri 08:27:00 PM 12.0540 -80.1032 171° South  Level FlightAware Approximate
Fri 08:28:00 PM 11.9264 -80.0823 171° South  Level FlightAware Approximate
Fri 08:29:00 PM 11.7989 -80.0614 171° South  Level FlightAware Approximate
Fri 08:30:00 PM 11.6713 -80.0405 171° South  Level FlightAware Approximate
Fri 08:31:00 PM 11.5438 -80.0197 171° South  Level FlightAware Approximate
Fri 08:32:00 PM 11.4163 -79.9988 171° South  Level FlightAware Approximate
Fri 08:33:00 PM 11.2887 -79.9780 171° South  Level FlightAware Approximate
Fri 08:34:00 PM 11.1611 -79.9572 171° South  Level FlightAware Approximate
Fri 08:35:00 PM 11.0337 -79.9357 170° South  Level FlightAware Approximate
Fri 08:36:00 PM 10.9063 -79.9137 170° South  Level FlightAware Approximate
Fri 08:37:00 PM 10.7790 -79.8917 170° South  Level FlightAware Approximate
Fri 08:38:00 PM 10.6516 -79.8698 170° South  Level FlightAware Approximate
Fri 08:39:00 PM 10.5242 -79.8479 170° South  Level FlightAware Approximate
Fri 08:40:00 PM 10.3969 -79.8260 170° South  Level FlightAware Approximate
Fri 08:41:00 PM 10.2695 -79.8041 170° South  Level FlightAware Approximate
Fri 08:42:00 PM 10.1421 -79.7822 170° South  Level FlightAware Approximate
Fri 08:43:00 PM 10.0148 -79.7604 170° South  Level FlightAware Approximate
Fri 08:44:00 PM 9.8874 -79.7385 170° South  Level FlightAware Approximate
Fri 08:45:00 PM 9.7600 -79.7167 170° South  Level FlightAware Approximate
Fri 08:46:00 PM 9.6326 -79.6949 170° South  Level FlightAware Approximate
Fri 08:47:00 PM 9.5052 -79.6731 170° South  Level FlightAware Approximate
Fri 08:48:00 PM 9.3779 -79.6514 170° South  Level FlightAware Approximate
Fri 08:49:00 PM 9.2505 -79.6296 170° South  Level FlightAware Approximate
Fri 08:50:00 PM 9.1231 -79.6079 170° South  Level FlightAware Approximate
Fri 08:51:00 PM 8.9957 -79.5862 170° South  Level FlightAware Approximate
Fri 08:52:00 PM 8.8684 -79.5645 170° South  Level FlightAware Approximate
Fri 08:53:00 PM 8.7404 -79.5516 182° South  Level FlightAware Approximate
Fri 08:54:00 PM 8.6113 -79.5563 182° South  Level FlightAware Approximate
Fri 08:55:00 PM 8.4822 -79.5610 182° South  Level FlightAware Approximate
Fri 08:56:00 PM 8.3531 -79.5657 182° South  Level FlightAware Approximate
Fri 08:57:00 PM 8.2240 -79.5704 182° South  Level FlightAware Approximate
Fri 08:58:00 PM 8.0949 -79.5750 182° South  Level FlightAware Approximate
Fri 08:59:00 PM 7.9658 -79.5797 182° South  Level FlightAware Approximate
Fri 09:00:00 PM 7.8367 -79.5839 181° South  Level FlightAware Approximate
Fri 09:01:00 PM 7.7076 -79.5863 181° South  Level FlightAware Approximate
Fri 09:02:00 PM 7.5784 -79.5887 181° South  Level FlightAware Approximate
Fri 09:03:00 PM 7.4493 -79.5911 181° South  Level FlightAware Approximate
Fri 09:04:00 PM 7.3201 -79.5935 181° South  Level FlightAware Approximate
Fri 09:05:00 PM 7.1910 -79.5958 181° South  Level FlightAware Approximate
Fri 09:06:00 PM 7.0618 -79.5982 181° South  Level FlightAware Approximate
Fri 09:07:00 PM 6.9327 -79.6013 182° South  Level FlightAware Approximate
Fri 09:08:00 PM 6.8036 -79.6061 182° South  Level FlightAware Approximate
Fri 09:09:00 PM 6.6745 -79.6108 182° South  Level FlightAware Approximate
Fri 09:10:00 PM 6.5454 -79.6156 182° South  Level FlightAware Approximate
Fri 09:11:00 PM 6.4163 -79.6204 182° South  Level FlightAware Approximate
Fri 09:12:00 PM 6.2872 -79.6252 182° South  Level FlightAware Approximate
Fri 09:13:00 PM 6.1581 -79.6300 182° South  Level FlightAware Approximate
Fri 09:14:00 PM 6.0290 -79.6348 182° South  Level FlightAware Approximate
Fri 09:15:00 PM 5.9000 -79.6396 182° South  Level FlightAware Approximate
Fri 09:16:00 PM 5.7709 -79.6443 182° South  Level FlightAware Approximate
Fri 09:17:00 PM 5.6418 -79.6491 182° South  Level FlightAware Approximate
Fri 09:18:00 PM 5.5127 -79.6539 182° South  Level FlightAware Approximate
Fri 09:19:00 PM 5.3836 -79.6587 182° South  Level FlightAware Approximate
Fri 09:20:00 PM 5.2545 -79.6634 182° South  Level FlightAware Approximate
Fri 09:21:00 PM 5.1254 -79.6683 182° South  Level FlightAware Approximate
Fri 09:22:00 PM 4.9964 -79.6735 182° South  Level FlightAware Approximate
Fri 09:23:00 PM 4.8673 -79.6787 182° South  Level FlightAware Approximate
Fri 09:24:00 PM 4.7382 -79.6839 182° South  Level FlightAware Approximate
Fri 09:25:00 PM 4.6091 -79.6890 182° South  Level FlightAware Approximate
Fri 09:26:00 PM 4.4801 -79.6942 182° South  Level FlightAware Approximate
Fri 09:27:00 PM 4.3510 -79.6994 182° South  Level FlightAware Approximate
Fri 09:28:00 PM 4.2219 -79.7046 182° South  Level FlightAware Approximate
Fri 09:29:00 PM 4.0929 -79.7097 182° South  Level FlightAware Approximate
Fri 09:30:00 PM 3.9638 -79.7149 182° South  Level FlightAware Approximate
Fri 09:31:00 PM 3.8347 -79.7201 182° South  Level FlightAware Approximate
Fri 09:32:00 PM 3.7057 -79.7252 182° South  Level FlightAware Approximate
Fri 09:33:00 PM 3.5766 -79.7304 182° South  Level FlightAware Approximate
Fri 09:34:00 PM 3.4475 -79.7356 182° South  Level FlightAware Approximate
Fri 09:35:00 PM 3.3184 -79.7407 182° South  Level FlightAware Approximate
Fri 09:36:00 PM 3.1894 -79.7459 182° South  Level FlightAware Approximate
Fri 09:37:00 PM 3.0603 -79.7511 182° South  Level FlightAware Approximate
Fri 09:38:00 PM 2.9312 -79.7562 182° South  Level FlightAware Approximate
Fri 09:39:00 PM 2.8022 -79.7614 182° South  Level FlightAware Approximate
Fri 09:40:00 PM 2.6731 -79.7665 182° South  Level FlightAware Approximate
Fri 09:41:00 PM 2.5440 -79.7717 182° South  Level FlightAware Approximate
Fri 09:42:00 PM 2.4150 -79.7768 182° South  Level FlightAware Approximate
Fri 09:43:00 PM 2.2859 -79.7820 182° South  Level FlightAware Approximate
Fri 09:44:00 PM 2.1568 -79.7871 182° South  Level FlightAware Approximate
Fri 09:45:00 PM 2.0278 -79.7923 182° South  Level FlightAware Approximate
Fri 09:46:00 PM 1.8987 -79.7974 182° South  Level FlightAware Approximate
Fri 09:47:00 PM 1.7696 -79.8026 182° South  Level FlightAware Approximate
Fri 09:48:00 PM 1.6405 -79.8077 182° South  Level FlightAware Approximate
Fri 09:49:00 PM 1.5115 -79.8129 182° South  Level FlightAware Approximate
Fri 09:50:00 PM 1.3829 -79.8100 169° South  Level FlightAware Approximate
Fri 09:51:00 PM 1.2562 -79.7848 169° South  Level FlightAware Approximate
Fri 09:52:00 PM 1.1295 -79.7596 169° South  Level FlightAware Approximate
Fri 09:53:00 PM 1.0028 -79.7344 169° South  Level FlightAware Approximate
Fri 09:54:00 PM 0.8761 -79.7093 169° South  Level FlightAware Approximate
Fri 09:55:00 PM 0.7494 -79.6841 169° South  Level FlightAware Approximate
Fri 09:56:00 PM 0.6227 -79.6589 169° South  Level FlightAware Approximate
Fri 09:57:00 PM 0.4960 -79.6338 169° South  Level FlightAware Approximate
Fri 09:58:00 PM 0.3693 -79.6086 169° South  Level FlightAware Approximate
Fri 09:58:16 PM -0.7920 -79.8540 169° South 500 575 39,000  Level FlightAware ADS-B
Fri 09:59:00 PM 0.2426 -79.5834 169° South  Level FlightAware Approximate
Fri 09:59:01 PM -0.8980 -79.8550 181° South 501 577 39,000  Level FlightAware ADS-B
Fri 09:59:47 PM -1.0010 -79.8560 181° South 503 579 39,000  Level FlightAware ADS-B
Fri 09:59:56 PM -1.0250 -79.8560 180° South 503 579 39,000  Level FlightAware ADS-B
Fri 10:01:49 PM -1.2360 -79.8580 166° South 503 579 39,000  Level FlightAware ADS-B
Fri 10:02:00 PM -1.2843 -79.7924 166° South  Level Estimated
Fri 10:04:00 PM -1.5096 -79.7895 166° South  Level Estimated
Fri 10:04:08 PM -1.5540 -79.8620 166° South 502 578 39,000  Level FlightAware ADS-B
Fri 10:04:46 PM -1.6940 -79.8630 180° South 501 577 39,000  Level FlightAware ADS-B
Fri 10:05:26 PM -1.7860 -79.8640 181° South 500 575 39,000  Level FlightAware ADS-B
Fri 10:06:11 PM -1.8990 -79.8650 181° South 498 573 39,000  Level FlightAware ADS-B
Fri 10:06:56 PM -2.0030 -79.8660 181° South 496 571 39,000  Level FlightAware ADS-B
Fri 10:07:35 PM -2.0810 -79.8660 180° South 495 570 39,000  Level FlightAware ADS-B
Fri 10:08:16 PM -2.1840 -79.8600 177° South 496 571 39,000  Level FlightAware ADS-B
Fri 10:09:01 PM -2.2920 -79.8460 173° South 498 573 39,000  Level FlightAware ADS-B
Fri 10:09:41 PM -2.3830 -79.8350 173° South 496 571 39,000  Level FlightAware ADS-B
Fri 10:10:21 PM -2.4740 -79.8230 172° South 495 570 39,000  Level FlightAware ADS-B
Fri 10:11:16 PM -2.5980 -79.8070 173° South 493 567 39,000  Level FlightAware ADS-B
Fri 10:12:03 PM -2.7020 -79.7940 173° South 493 567 39,000  Level FlightAware ADS-B
Fri 10:12:46 PM -2.8010 -79.7820 173° South 493 567 39,000  Level FlightAware ADS-B
Fri 10:13:21 PM -2.8830 -79.7710 172° South 493 567 39,000  Level FlightAware ADS-B
Fri 10:14:06 PM -2.9850 -79.7580 173° South 494 568 39,000  Level FlightAware ADS-B
Fri 10:14:46 PM -3.0750 -79.7470 173° South 495 570 39,000  Level FlightAware ADS-B
Fri 10:16:51 PM -3.3610 -79.7110 164° South 493 567 39,000  Level FlightAware ADS-B
Fri 10:17:00 PM -3.3529 -79.6666 164° South  Level Estimated
Fri 10:17:36 PM -3.4610 -79.6980 173° South 494 568 39,000  Level FlightAware ADS-B
Fri 10:18:16 PM -3.5380 -79.6890 173° South 494 568 39,000  Level FlightAware ADS-B
Fri 10:19:06 PM -3.6350 -79.6770 173° South 494 568 39,000  Level FlightAware ADS-B
Fri 10:19:43 PM -3.7060 -79.6680 173° South 494 568 39,000  Level FlightAware ADS-B
Fri 10:20:52 PM -3.8390 -79.6520 173° South 494 568 39,000  Level FlightAware ADS-B
Fri 10:21:51 PM -3.9530 -79.6380 173° South 494 568 39,000  Level FlightAware ADS-B
Fri 10:22:29 PM -4.0260 -79.6290 173° South 494 568 39,000  Level FlightAware ADS-B
Fri 10:23:07 PM -4.0990 -79.6200 173° South 494 568 39,000  Level FlightAware ADS-B
Fri 10:23:56 PM -4.1940 -79.6080 173° South 494 568 39,000  Level FlightAware ADS-B
Fri 10:24:33 PM -4.2650 -79.5990 173° South 494 568 39,000  Level FlightAware ADS-B
Fri 10:25:31 PM -4.3770 -79.5850 173° South 494 568 39,000  Level FlightAware ADS-B
Fri 10:26:19 PM -4.4700 -79.5740 173° South 494 568 39,000  Level FlightAware ADS-B
Fri 10:26:55 PM -4.5390 -79.5660 173° South 494 568 39,000 -334 Level FlightAware ADS-B
Fri 10:29:00 PM -4.7959 -79.4832 162° South  Level Estimated
Fri 10:30:00 PM -4.9196 -79.4433 162° South  Level Estimated
Fri 10:31:00 PM -5.0433 -79.4035 162° South  Level Estimated
Fri 10:32:00 PM -5.1669 -79.3636 162° South  Level Estimated
Fri 10:33:00 PM -5.2906 -79.3236 162° South  Level Estimated
Fri 10:34:00 PM -5.4142 -79.2837 162° South  Level Estimated
Fri 10:35:00 PM -5.5378 -79.2438 162° South  Level Estimated
Fri 10:36:00 PM -5.6615 -79.2038 162° South  Level Estimated
Fri 10:37:00 PM -5.7851 -79.1638 162° South  Level Estimated
Fri 10:38:00 PM -5.9088 -79.1238 162° South  Level Estimated
Fri 10:39:00 PM -6.0324 -79.0838 162° South  Level Estimated
Fri 10:40:00 PM -6.1560 -79.0438 162° South  Level Estimated
Fri 10:41:00 PM -6.2797 -79.0037 162° South  Level Estimated
Fri 10:42:00 PM -6.4033 -78.9637 162° South  Level Estimated
Fri 10:43:00 PM -6.5269 -78.9236 162° South  Level Estimated
Fri 10:44:00 PM -6.6505 -78.8835 162° South  Level Estimated
Fri 10:45:00 PM -6.7741 -78.8433 162° South  Level Estimated
Fri 10:46:00 PM -6.8978 -78.8032 162° South  Level Estimated
Fri 10:47:00 PM -7.0214 -78.7630 162° South  Level Estimated
Fri 10:48:00 PM -7.1450 -78.7228 162° South  Level Estimated
Fri 10:49:00 PM -7.2686 -78.6826 162° South  Level Estimated
Fri 10:50:00 PM -7.3922 -78.6424 162° South  Level Estimated
Fri 10:51:00 PM -7.5158 -78.6021 162° South  Level Estimated
Fri 10:52:00 PM -7.6394 -78.5618 162° South  Level Estimated
Fri 10:53:00 PM -7.7629 -78.5215 162° South  Level Estimated
Fri 10:54:00 PM -7.8865 -78.4812 162° South  Level Estimated
Fri 10:55:00 PM -8.0101 -78.4408 162° South  Level Estimated
Fri 10:56:00 PM -8.1337 -78.4004 162° South  Level Estimated
Fri 10:57:00 PM -8.2573 -78.3600 162° South  Level Estimated
Fri 10:58:00 PM -8.3808 -78.3196 162° South  Level Estimated
Fri 10:59:00 PM -8.5044 -78.2792 162° South  Level Estimated
Fri 11:00:00 PM -8.6279 -78.2387 162° South  Level Estimated
Fri 11:01:00 PM -8.7515 -78.1982 162° South  Level Estimated
Fri 11:02:00 PM -8.8751 -78.1576 162° South  Level Estimated
Fri 11:03:00 PM -8.9986 -78.1171 162° South  Level Estimated
Fri 11:04:00 PM -9.1222 -78.0765 162° South  Level Estimated
Fri 11:05:00 PM -9.2457 -78.0359 162° South  Level Estimated
Fri 11:06:00 PM -9.3692 -77.9952 162° South  Level Estimated
Fri 11:07:00 PM -9.4928 -77.9545 162° South  Level Estimated
Fri 11:08:00 PM -9.6163 -77.9138 162° South  Level Estimated
Fri 11:09:00 PM -9.7398 -77.8731 162° South  Level Estimated
Fri 11:10:00 PM -9.8633 -77.8323 162° South  Level Estimated
Fri 11:11:00 PM -9.9868 -77.7915 162° South  Level Estimated
Fri 11:12:00 PM -10.1103 -77.7507 162° South  Level Estimated
Fri 11:13:00 PM -10.2338 -77.7098 162° South  Level Estimated
Fri 11:14:00 PM -10.3573 -77.6690 162° South  Level Estimated
Fri 11:15:00 PM -10.4808 -77.6280 162° South  Level Estimated
Fri 11:15:22 PM -10.9960 -77.6720 162° South 346 398 22,600  Level FlightAware ADS-B
Fri 11:16:00 PM -10.6043 -77.5871 162° South  Level Estimated
Fri 11:16:06 PM -11.0560 -77.7060 209° Southwest 321 369 21,900  Level FlightAware ADS-B
Fri 11:16:52 PM -11.1050 -77.7340 209° Southwest 318 366 21,800 -73 Descending FlightAware ADS-B
Fri 11:17:28 PM -11.1440 -77.7560 209° Southwest 318 366 21,800  Level FlightAware ADS-B
Fri 11:18:16 PM -11.1970 -77.7860 209° Southwest 318 366 21,800  Level FlightAware ADS-B
Fri 11:18:53 PM -11.2370 -77.8090 209° Southwest 318 366 21,800  Level FlightAware ADS-B
Fri 11:19:41 PM -11.2900 -77.8390 209° Southwest 318 366 21,800 -2,765 Level FlightAware ADS-B
Fri 11:22:00 PM -11.5062 -77.6255 136° Southeast  Level Estimated
Fri 11:22:56 PM -11.4500 -77.5040 136° Southeast 256 295 10,600  Level FlightAware ADS-B
Fri 11:23:00 PM -11.5995 -77.5333 136° Southeast  Level Estimated
Fri 11:23:24 PM -11.4710 -77.4780 129° Southeast 258 297 9,600  Level FlightAware ADS-B
Fri 11:23:50 PM -11.4880 -77.4570 130° Southeast 258 297 9,600  Level FlightAware ADS-B
Fri 11:24:02 PM -11.4950 -77.4470 126° Southeast 258 297 9,600  Level FlightAware ADS-B
Fri 11:24:37 PM -11.5180 -77.4190 130° Southeast 258 297 9,600  Level FlightAware ADS-B
Fri 11:25:01 PM -11.5330 -77.4000 129° Southeast 258 297 9,600  Level FlightAware ADS-B
Fri 11:27:00 PM -11.7566 -77.2695 150° Southeast  Level Estimated
Fri 11:28:00 PM -11.8694 -77.2036 150° Southeast  Level Estimated
Fri 11:29:00 PM -11.9821 -77.1376 150° Southeast  Level Estimated
Fri 11:30:00 PM -12.0219 -77.1143 150° Southeast  Level Estimated
Fri 11:31:00 PM -12.0219 -77.1143 44° Northeast  Level Estimated
Fri 11:32:00 PM -12.0219 -77.1143 44° Northeast  Level Estimated
Fri 11:33:00 PM -12.0219 -77.1143 44° Northeast  Level Estimated
Fri 11:34:00 PM -12.0219 -77.1143 44° Northeast  Level Estimated
Fri 11:35:00 PM -12.0219 -77.1143 44° Northeast  Level Estimated

Login

Don't have an account? Register now (free) for customized features, flight alerts, and more!